Time;durP1;ratioP1;P1;durP2;ratioP2;P2;SDS_P1;SDS_P2;PMS_P1;PMS_P2;Temp;Humidity;BMP_temperature;BMP_pressure;BME280_temperature;BME280_humidity;BME280_pressure;Samples;Min_cycle;Max_cycle;Signal;HPM_P1;HPM_P2
2023/05/19 00:01:04;;;;;;;6.78;3.42;;;9.90;87.80;;;;;;5043960;28;20037;-42
2023/05/19 00:03:32;;;;;;;9.20;3.75;;;9.80;87.80;;;;;;5040335;28;20098;-43
2023/05/19 00:06:02;;;;;;;8.82;3.30;;;9.70;87.60;;;;;;5034493;28;20033;-43
2023/05/19 00:08:33;;;;;;;7.43;3.20;;;9.70;87.80;;;;;;5048966;28;20447;-43
2023/05/19 00:11:03;;;;;;;10.88;5.25;;;9.80;88.00;;;;;;5029547;28;20041;-43
2023/05/19 00:13:29;;;;;;;7.63;3.53;;;9.80;88.40;;;;;;5031934;28;20120;-44
2023/05/19 00:16:00;;;;;;;8.80;3.35;;;9.90;88.60;;;;;;5048036;28;20127;-43
2023/05/19 00:18:31;;;;;;;7.35;3.15;;;9.90;88.80;;;;;;5046470;28;20121;-44
2023/05/19 00:20:58;;;;;;;10.95;4.32;;;9.90;89.40;;;;;;5033260;28;20041;-43
2023/05/19 00:23:24;;;;;;;11.73;3.50;;;10.00;89.70;;;;;;5046961;28;20039;-42
2023/05/19 00:25:54;;;;;;;13.45;3.92;;;10.10;89.90;;;;;;5051809;28;20033;-43
2023/05/19 00:28:22;;;;;;;10.20;3.22;;;10.20;90.10;;;;;;5049766;28;20422;-42
2023/05/19 00:30:50;;;;;;;9.82;3.95;;;10.20;90.00;;;;;;5047572;28;20135;-42
2023/05/19 00:33:18;;;;;;;10.55;3.38;;;10.20;90.00;;;;;;5041695;28;20101;-42
2023/05/19 00:35:45;;;;;;;7.50;3.95;;;10.10;90.00;;;;;;5052896;28;20025;-42
2023/05/19 00:38:10;;;;;;;11.15;4.80;;;10.20;90.20;;;;;;5029718;28;20029;-43
2023/05/19 00:40:37;;;;;;;10.27;3.60;;;10.20;90.20;;;;;;5034715;28;20040;-42
2023/05/19 00:43:08;;;;;;;11.30;4.20;;;10.20;90.00;;;;;;5051615;28;20448;-42
2023/05/19 00:45:35;;;;;;;8.30;4.38;;;10.10;89.80;;;;;;5051877;28;20064;-42
2023/05/19 00:48:02;;;;;;;7.60;3.88;;;10.00;89.60;;;;;;5033797;28;20362;-44
2023/05/19 00:50:31;;;;;;;8.73;3.95;;;10.00;89.30;;;;;;5051637;28;20104;-43
2023/05/19 00:52:59;;;;;;;11.52;4.90;;;9.90;89.30;;;;;;5032666;28;20033;-44
2023/05/19 00:55:28;;;;;;;11.05;4.28;;;9.90;89.30;;;;;;5049329;28;20037;-42
2023/05/19 00:57:56;;;;;;;6.93;3.50;;;9.80;89.20;;;;;;5026793;28;20033;-43
2023/05/19 01:00:26;;;;;;;11.85;5.00;;;9.80;89.10;;;;;;5051558;28;20713;-42
2023/05/19 01:02:54;;;;;;;8.32;3.80;;;9.80;88.90;;;;;;5052421;28;20393;-44
2023/05/19 01:05:22;;;;;;;7.18;3.40;;;9.70;88.90;;;;;;5040826;28;20121;-45
2023/05/19 01:07:52;;;;;;;12.27;3.50;;;9.70;89.00;;;;;;5035072;28;20083;-43
2023/05/19 01:10:19;;;;;;;10.68;4.18;;;9.70;89.00;;;;;;5033004;28;20378;-43
2023/05/19 01:12:46;;;;;;;9.35;4.68;;;9.60;89.00;;;;;;5033433;28;20385;-43
2023/05/19 01:15:12;;;;;;;5.70;3.20;;;9.60;89.10;;;;;;5049984;28;20036;-43
2023/05/19 01:17:57;;;;;;;8.90;4.03;;;9.60;89.10;;;;;;5041749;28;20041;-43
2023/05/19 01:20:37;;;;;;;8.48;4.07;;;9.60;89.20;;;;;;5031861;28;20441;-43
2023/05/19 01:23:41;;;;;;;7.93;3.60;;;9.60;89.20;;;;;;5045426;28;20496;-42
2023/05/19 01:26:13;;;;;;;6.20;3.85;;;9.50;89.30;;;;;;5039343;28;20116;-44
2023/05/19 01:29:19;;;;;;;7.90;3.50;;;9.50;89.30;;;;;;5051535;28;20103;-44
2023/05/19 01:31:47;;;;;;;6.45;4.15;;;9.40;89.30;;;;;;5052455;28;20021;-44
2023/05/19 01:34:17;;;;;;;9.68;4.50;;;9.40;89.30;;;;;;5024284;28;20029;-44
2023/05/19 01:36:48;;;;;;;9.57;3.67;;;9.40;89.20;;;;;;5050051;28;20033;-43
2023/05/19 01:39:15;;;;;;;7.55;4.50;;;9.40;89.30;;;;;;5031433;28;20171;-43
2023/05/19 01:41:45;;;;;;;7.10;4.03;;;9.40;89.30;;;;;;5019790;28;20531;-44
2023/05/19 01:44:14;;;;;;;;;;;9.40;89.10;;;;;;5017815;28;20067;-43
2023/05/19 01:46:42;;;;;;;7.43;3.90;;;9.30;89.10;;;;;;5046770;28;20239;-43
2023/05/19 01:49:08;;;;;;;11.18;4.35;;;9.30;89.20;;;;;;5043661;28;20053;-43
2023/05/19 01:51:39;;;;;;;7.28;3.67;;;9.30;89.10;;;;;;5036076;28;20033;-43
2023/05/19 01:54:07;;;;;;;8.60;4.00;;;9.30;89.10;;;;;;5048495;28;20386;-42
2023/05/19 01:56:45;;;;;;;12.30;4.60;;;9.30;89.00;;;;;;5054633;28;20037;-41
2023/05/19 01:59:49;;;;;;;7.38;4.50;;;9.30;89.00;;;;;;5028463;28;20030;-46
2023/05/19 02:02:35;;;;;;;10.02;4.13;;;9.20;88.90;;;;;;5052030;28;20059;-42
2023/05/19 02:05:20;;;;;;;8.48;3.97;;;9.20;88.70;;;;;;5018984;28;20642;-43
2023/05/19 02:08:24;;;;;;;9.27;4.03;;;9.20;88.70;;;;;;5048750;28;20044;-42
2023/05/19 02:10:56;;;;;;;8.38;3.55;;;9.20;88.70;;;;;;5026910;28;20032;-42
2023/05/19 02:13:26;;;;;;;8.38;4.28;;;9.20;88.60;;;;;;5021581;28;20090;-42
2023/05/19 02:15:54;;;;;;;7.70;3.75;;;9.20;88.50;;;;;;5049068;28;20412;-42
2023/05/19 02:18:23;;;;;;;10.77;3.88;;;9.20;88.40;;;;;;5037258;28;20036;-42
2023/05/19 02:20:53;;;;;;;11.10;4.18;;;9.20;88.40;;;;;;5043735;28;20045;-43
2023/05/19 02:23:19;;;;;;;8.32;3.88;;;9.20;88.30;;;;;;5046432;28;20033;-43
2023/05/19 02:25:45;;;;;;;6.88;3.58;;;9.20;88.10;;;;;;5053753;28;20463;-43
2023/05/19 02:28:12;;;;;;;6.57;4.07;;;9.20;88.20;;;;;;5044634;28;20123;-42
2023/05/19 02:30:38;;;;;;;11.05;4.03;;;9.10;88.20;;;;;;5048230;28;20474;-43
2023/05/19 02:33:10;;;;;;;7.57;4.25;;;9.10;88.20;;;;;;5032012;28;20025;-42
2023/05/19 02:35:38;;;;;;;9.45;3.80;;;9.10;88.30;;;;;;5036388;28;20115;-43
2023/05/19 02:38:06;;;;;;;7.72;4.05;;;9.10;88.30;;;;;;5048462;28;20029;-46
2023/05/19 02:40:32;;;;;;;7.00;3.83;;;9.10;88.20;;;;;;5029716;28;20037;-43
2023/05/19 02:42:59;;;;;;;8.95;4.75;;;9.00;88.30;;;;;;5052559;28;20036;-44
2023/05/19 02:45:27;;;;;;;12.43;4.55;;;9.00;88.20;;;;;;5052756;28;20350;-42
2023/05/19 02:47:56;;;;;;;12.63;4.90;;;9.00;88.30;;;;;;5036934;28;20029;-46
2023/05/19 02:50:24;;;;;;;8.98;4.40;;;9.00;88.30;;;;;;5054836;28;20086;-44
2023/05/19 02:52:55;;;;;;;9.10;4.25;;;9.00;88.40;;;;;;5052021;28;20035;-43
2023/05/19 02:55:22;;;;;;;10.27;4.45;;;9.00;88.50;;;;;;5032982;28;20116;-46
2023/05/19 02:57:49;;;;;;;9.50;4.82;;;8.90;88.60;;;;;;5049174;28;20086;-43
2023/05/19 03:00:18;;;;;;;8.88;5.07;;;8.90;88.80;;;;;;5043766;28;20094;-44
2023/05/19 03:02:44;;;;;;;9.80;4.65;;;8.90;88.80;;;;;;5031692;28;20044;-47
2023/05/19 03:05:13;;;;;;;9.40;5.07;;;9.00;88.90;;;;;;5044805;28;20033;-43
2023/05/19 03:07:41;;;;;;;8.23;5.63;;;9.00;89.00;;;;;;5045154;28;20025;-46
2023/05/19 03:10:08;;;;;;;10.63;5.90;;;9.00;89.20;;;;;;5027903;28;20017;-42
2023/05/19 03:12:34;;;;;;;9.32;5.75;;;9.00;89.10;;;;;;5045518;28;20060;-47
2023/05/19 03:15:01;;;;;;;11.93;5.10;;;9.00;88.90;;;;;;5046447;28;20067;-43
2023/05/19 03:17:32;;;;;;;10.07;5.43;;;9.00;89.00;;;;;;5043422;28;20036;-44
2023/05/19 03:20:00;;;;;;;9.95;6.10;;;9.00;89.00;;;;;;5043262;28;20127;-43
2023/05/19 03:22:27;;;;;;;7.70;4.43;;;8.90;88.70;;;;;;5041097;28;20029;-44
2023/05/19 03:24:57;;;;;;;9.98;4.45;;;8.90;88.60;;;;;;5050860;28;20057;-45
2023/05/19 03:27:26;;;;;;;6.45;3.60;;;8.90;88.40;;;;;;5047406;28;20031;-44
2023/05/19 03:29:56;;;;;;;9.02;4.25;;;8.80;88.20;;;;;;5039941;28;20068;-43
2023/05/19 03:32:24;;;;;;;7.38;3.92;;;8.80;88.10;;;;;;5035180;28;20029;-44
2023/05/19 03:34:51;;;;;;;8.50;4.05;;;8.80;87.80;;;;;;5053298;28;20028;-42
2023/05/19 03:37:18;;;;;;;9.05;3.75;;;8.80;87.70;;;;;;5053630;28;20037;-43
2023/05/19 03:39:50;;;;;;;7.97;3.75;;;8.70;87.40;;;;;;5042479;28;20066;-47
2023/05/19 03:42:17;;;;;;;10.70;4.50;;;8.70;87.30;;;;;;5051923;28;20373;-48
2023/05/19 03:44:45;;;;;;;6.65;3.75;;;8.70;87.20;;;;;;5049303;28;20029;-42
2023/05/19 03:47:11;;;;;;;8.65;4.40;;;8.70;87.10;;;;;;5043431;28;20510;-42
2023/05/19 03:49:36;;;;;;;11.02;4.05;;;8.70;87.10;;;;;;5050113;28;20032;-48
2023/05/19 03:52:04;;;;;;;9.82;3.80;;;8.70;87.10;;;;;;5047833;28;20068;-46
2023/05/19 03:54:32;;;;;;;8.57;3.40;;;8.70;87.00;;;;;;5031968;28;20481;-44
2023/05/19 03:56:59;;;;;;;5.60;4.07;;;8.70;87.00;;;;;;5042712;28;20036;-46
2023/05/19 03:59:29;;;;;;;9.55;3.50;;;8.70;87.00;;;;;;5043888;28;20032;-42
2023/05/19 04:01:56;;;;;;;7.57;3.25;;;8.70;87.00;;;;;;5028281;28;20111;-43
2023/05/19 04:04:23;;;;;;;7.68;4.13;;;8.70;87.00;;;;;;5052720;28;20024;-46
2023/05/19 04:06:50;;;;;;;10.70;5.05;;;8.80;86.90;;;;;;5033173;28;20147;-41
2023/05/19 04:09:18;;;;;;;10.13;4.80;;;8.80;86.80;;;;;;5035209;28;20021;-45
2023/05/19 04:11:44;;;;;;;8.32;5.07;;;8.90;86.70;;;;;;5046711;28;20121;-47
2023/05/19 04:14:22;;;;;;;8.63;4.10;;;9.00;86.60;;;;;;5035511;28;20021;-42
2023/05/19 04:16:50;;;;;;;9.60;4.55;;;9.00;86.50;;;;;;5034649;28;20035;-41
2023/05/19 04:19:18;;;;;;;8.73;5.40;;;9.10;86.40;;;;;;5028710;28;20037;-41
2023/05/19 04:21:45;;;;;;;10.98;5.53;;;9.20;86.20;;;;;;5052724;28;20508;-44
2023/05/19 04:24:11;;;;;;;8.95;5.05;;;9.30;86.10;;;;;;5034676;28;20086;-42
2023/05/19 04:26:43;;;;;;;11.45;4.68;;;9.30;85.50;;;;;;5048279;28;20107;-42
2023/05/19 04:29:12;;;;;;;7.10;3.95;;;9.40;85.10;;;;;;5035974;28;20060;-44
2023/05/19 04:31:44;;;;;;;11.52;3.47;;;9.50;84.30;;;;;;5047275;28;20040;-41
2023/05/19 04:34:11;;;;;;;8.82;3.72;;;9.50;82.70;;;;;;5035144;28;20458;-42
2023/05/19 04:36:38;;;;;;;8.38;3.38;;;9.60;82.20;;;;;;5041719;28;20099;-43
2023/05/19 04:39:08;;;;;;;8.80;2.90;;;9.70;80.90;;;;;;5051333;28;20071;-42
2023/05/19 04:41:39;;;;;;;9.25;2.75;;;9.70;79.70;;;;;;5034257;28;20045;-42
2023/05/19 04:44:07;;;;;;;6.35;3.20;;;9.70;79.40;;;;;;5051106;28;20025;-43
2023/05/19 04:46:35;;;;;;;8.00;3.95;;;9.70;78.30;;;;;;5019623;28;20049;-41
2023/05/19 04:49:02;;;;;;;6.32;2.85;;;9.70;78.80;;;;;;5025841;28;20509;-42
2023/05/19 04:51:31;;;;;;;7.32;2.63;;;9.70;78.90;;;;;;5051130;28;20028;-42
2023/05/19 04:54:00;;;;;;;6.25;2.58;;;9.80;78.40;;;;;;5042588;28;20386;-41
2023/05/19 04:56:26;;;;;;;5.47;2.60;;;9.90;77.90;;;;;;5041852;28;20116;-43
2023/05/19 04:58:54;;;;;;;8.10;3.00;;;9.90;77.70;;;;;;5052402;28;20107;-42
2023/05/19 05:01:24;;;;;;;5.53;2.35;;;9.90;76.50;;;;;;5043954;28;20037;-42
2023/05/19 05:03:57;;;;;;;7.82;2.33;;;9.90;76.70;;;;;;5047161;28;20029;-43
2023/05/19 05:06:25;;;;;;;8.18;3.10;;;9.90;76.50;;;;;;5051900;28;20064;-42
2023/05/19 05:08:53;;;;;;;9.15;2.47;;;9.90;77.10;;;;;;5042932;28;20022;-42
2023/05/19 05:11:20;;;;;;;7.55;2.88;;;9.90;77.40;;;;;;5044107;28;20422;-41
2023/05/19 05:13:48;;;;;;;12.10;3.30;;;9.90;77.60;;;;;;5033101;28;20061;-43
2023/05/19 05:16:16;;;;;;;5.20;2.78;;;9.90;77.70;;;;;;5042209;28;20055;-43
2023/05/19 05:18:45;;;;;;;10.38;3.20;;;9.90;78.00;;;;;;5047105;28;20090;-43
2023/05/19 05:21:12;;;;;;;8.30;3.30;;;10.00;78.00;;;;;;5043769;28;20045;-43
2023/05/19 05:23:42;;;;;;;10.15;3.53;;;10.00;78.00;;;;;;5031936;28;20029;-43
2023/05/19 05:26:19;;;;;;;8.05;3.25;;;10.10;78.20;;;;;;5038261;28;20044;-43
2023/05/19 05:28:46;;;;;;;8.82;2.85;;;10.00;78.30;;;;;;5034727;28;20124;-43
2023/05/19 05:31:14;;;;;;;8.20;2.95;;;10.10;78.50;;;;;;5052083;28;20130;-44
2023/05/19 05:33:44;;;;;;;7.38;3.90;;;10.00;78.20;;;;;;5054462;28;20346;-43
2023/05/19 05:36:12;;;;;;;;;;;10.10;78.10;;;;;;5034468;28;20068;-42
2023/05/19 05:38:40;;;;;;;10.57;3.28;;;10.00;77.00;;;;;;5054558;28;19940;-43
2023/05/19 05:41:07;;;;;;;9.73;3.38;;;10.10;77.40;;;;;;5052344;28;20034;-43
2023/05/19 05:43:34;;;;;;;6.68;2.90;;;10.20;77.50;;;;;;5033776;28;20044;-42
2023/05/19 05:46:01;;;;;;;5.15;2.85;;;10.30;77.50;;;;;;5054604;28;20029;-43
2023/05/19 05:48:28;;;;;;;7.05;3.03;;;10.30;77.10;;;;;;5049867;28;20143;-44
2023/05/19 05:50:56;;;;;;;10.85;3.50;;;10.40;77.30;;;;;;5035989;28;20487;-43
2023/05/19 05:53:28;;;;;;;7.35;2.38;;;10.40;77.60;;;;;;5051868;28;20114;-43
2023/05/19 05:55:56;;;;;;;11.45;4.75;;;10.60;77.70;;;;;;5029493;28;20061;-42
2023/05/19 05:58:24;;;;;;;10.45;3.33;;;10.70;76.90;;;;;;5049910;28;20121;-43
2023/05/19 06:00:52;;;;;;;11.90;3.47;;;10.70;76.20;;;;;;5050990;28;20024;-44
2023/05/19 06:03:22;;;;;;;8.35;3.70;;;10.90;76.20;;;;;;5050920;28;20059;-43
2023/05/19 06:05:51;;;;;;;13.07;3.95;;;10.90;76.50;;;;;;5041390;28;20033;-44
2023/05/19 06:08:18;;;;;;;11.00;4.88;;;11.00;75.90;;;;;;5049495;28;20029;-43
2023/05/19 06:10:47;;;;;;;8.57;3.17;;;11.00;75.00;;;;;;5046368;28;20331;-44
2023/05/19 06:13:20;;;;;;;12.57;4.15;;;11.10;74.50;;;;;;5051201;28;20025;-43
2023/05/19 06:15:46;;;;;;;6.93;3.63;;;11.20;73.80;;;;;;5048460;28;20048;-44
2023/05/19 06:18:13;;;;;;;8.50;2.92;;;11.20;74.40;;;;;;5054540;28;20032;-47
2023/05/19 06:20:41;;;;;;;6.75;3.53;;;11.30;73.80;;;;;;5051567;28;20454;-46
2023/05/19 06:23:08;;;;;;;9.10;3.25;;;11.30;73.80;;;;;;5046272;28;20092;-44
2023/05/19 06:25:35;;;;;;;10.48;2.80;;;11.40;73.30;;;;;;5030720;28;20367;-44
2023/05/19 06:28:01;;;;;;;9.48;3.38;;;11.40;72.00;;;;;;5042538;28;20175;-44
2023/05/19 06:30:30;;;;;;;9.45;3.33;;;11.40;70.90;;;;;;5043248;28;20033;-50
2023/05/19 06:32:56;;;;;;;7.57;2.65;;;11.40;70.20;;;;;;5027987;28;20033;-46
2023/05/19 06:35:33;;;;;;;9.57;3.13;;;11.50;70.80;;;;;;5049416;28;20025;-46
2023/05/19 06:38:01;;;;;;;8.30;2.97;;;11.40;69.80;;;;;;5030232;28;20041;-50
2023/05/19 06:40:29;;;;;;;9.88;3.22;;;11.50;71.60;;;;;;5049821;28;20052;-44
2023/05/19 06:43:00;;;;;;;7.47;3.08;;;11.50;71.70;;;;;;5029203;28;20029;-46
2023/05/19 06:45:30;;;;;;;7.65;2.88;;;11.40;71.50;;;;;;5048440;28;20359;-45
2023/05/19 06:48:00;;;;;;;9.82;3.40;;;11.40;72.50;;;;;;5029838;28;20021;-46
2023/05/19 06:50:25;;;;;;;8.88;3.60;;;11.40;73.70;;;;;;5049009;28;20064;-49
2023/05/19 06:52:52;;;;;;;9.65;3.33;;;11.40;73.20;;;;;;5033284;28;20049;-45
2023/05/19 06:55:21;;;;;;;9.43;3.55;;;11.60;74.10;;;;;;5030420;28;20037;-45
2023/05/19 06:57:48;;;;;;;9.45;3.83;;;11.60;72.40;;;;;;5053087;28;20025;-48
2023/05/19 07:00:15;;;;;;;9.73;4.47;;;11.70;73.30;;;;;;5047104;28;20029;-50
2023/05/19 07:02:41;;;;;;;7.75;3.60;;;11.70;72.60;;;;;;5050049;28;20052;-44
2023/05/19 07:05:11;;;;;;;11.80;5.03;;;11.70;73.00;;;;;;5048249;28;20033;-45
2023/05/19 07:07:38;;;;;;;;;;;11.80;73.20;;;;;;5053487;28;20040;-45
2023/05/19 07:10:04;;;;;;;9.23;3.65;;;11.70;72.40;;;;;;5050109;28;19959;-48
2023/05/19 07:12:32;;;;;;;11.80;3.83;;;11.70;73.30;;;;;;5044178;28;20029;-45
2023/05/19 07:14:59;;;;;;;8.70;3.58;;;11.80;72.60;;;;;;5043602;28;20483;-46
2023/05/19 07:17:26;;;;;;;8.50;3.35;;;11.90;72.30;;;;;;5051097;28;20025;-45
2023/05/19 07:19:54;;;;;;;11.82;3.78;;;11.90;71.70;;;;;;5049732;28;20029;-47
2023/05/19 07:22:23;;;;;;;10.10;4.30;;;12.00;71.50;;;;;;5041096;28;20017;-45
2023/05/19 07:24:50;;;;;;;10.93;3.55;;;11.90;71.80;;;;;;5045455;28;20047;-45
2023/05/19 07:27:18;;;;;;;10.30;3.55;;;12.10;71.40;;;;;;5049701;28;20442;-45
2023/05/19 07:29:47;;;;;;;13.57;4.57;;;12.20;70.70;;;;;;5052678;28;20063;-47
2023/05/19 07:32:15;;;;;;;11.75;3.50;;;12.50;70.40;;;;;;5042905;28;20339;-45
2023/05/19 07:34:41;;;;;;;9.43;3.30;;;12.70;69.80;;;;;;5050808;28;20025;-48
2023/05/19 07:37:08;;;;;;;9.32;4.15;;;13.00;70.00;;;;;;5048463;28;20040;-48
2023/05/19 07:39:35;;;;;;;8.35;3.20;;;13.40;69.80;;;;;;5048374;28;20066;-47
2023/05/19 07:42:02;;;;;;;7.40;3.60;;;13.90;67.50;;;;;;5047841;28;20029;-45
2023/05/19 07:44:33;;;;;;;9.38;3.30;;;14.40;67.50;;;;;;5043574;28;20082;-49
2023/05/19 07:47:00;;;;;;;7.22;3.13;;;15.30;66.00;;;;;;5024924;28;20041;-51
2023/05/19 07:49:28;;;;;;;8.50;2.95;;;15.70;62.30;;;;;;5040667;28;20017;-46
2023/05/19 07:51:56;;;;;;;11.07;3.53;;;16.10;61.40;;;;;;5029703;28;20068;-47
2023/05/19 07:54:23;;;;;;;10.35;3.58;;;16.80;60.20;;;;;;5045657;28;20064;-46
2023/05/19 07:56:49;;;;;;;5.90;2.63;;;16.90;58.40;;;;;;5032912;28;20434;-46
2023/05/19 07:59:20;;;;;;;8.15;3.17;;;16.90;59.20;;;;;;5029875;28;20041;-46
2023/05/19 08:01:46;;;;;;;7.72;3.08;;;16.90;57.50;;;;;;5027582;28;20040;-47
2023/05/19 08:04:14;;;;;;;8.70;2.63;;;17.20;58.10;;;;;;5048376;28;20041;-46
2023/05/19 08:06:43;;;;;;;5.65;2.97;;;17.10;55.90;;;;;;5039757;28;20045;-45
2023/05/19 08:09:10;;;;;;;7.45;2.55;;;17.20;57.40;;;;;;5047526;28;20033;-45
2023/05/19 08:11:37;;;;;;;8.15;3.25;;;17.40;56.60;;;;;;5043142;28;20024;-46
2023/05/19 08:14:05;;;;;;;8.80;3.42;;;17.40;55.20;;;;;;5042542;28;20493;-46
2023/05/19 08:16:32;;;;;;;9.57;3.72;;;17.40;56.20;;;;;;5028850;28;20037;-47
2023/05/19 08:19:03;;;;;;;7.43;2.95;;;17.40;56.70;;;;;;5048297;28;20029;-47
2023/05/19 08:21:47;;;;;;;10.23;3.47;;;17.60;56.90;;;;;;5009468;28;1176113;-48
2023/05/19 08:24:16;;;;;;;10.00;3.55;;;18.00;56.40;;;;;;5045476;28;20041;-46
2023/05/19 08:26:46;;;;;;;14.35;4.20;;;18.30;53.80;;;;;;5039843;28;20692;-47
2023/05/19 08:29:14;;;;;;;10.23;3.88;;;18.20;53.10;;;;;;5049108;28;20056;-45
2023/05/19 08:31:45;;;;;;;10.73;3.58;;;18.10;55.60;;;;;;5019626;28;20025;-46
2023/05/19 08:34:11;;;;;;;12.07;4.57;;;18.00;55.30;;;;;;5051117;28;20078;-48
2023/05/19 08:36:39;;;;;;;11.80;3.78;;;18.00;57.40;;;;;;5041880;28;20033;-47
2023/05/19 08:39:07;;;;;;;10.18;4.38;;;18.00;57.20;;;;;;5048122;28;20033;-48
2023/05/19 08:41:35;;;;;;;7.25;3.55;;;18.10;57.10;;;;;;5048797;28;20043;-50
2023/05/19 08:44:03;;;;;;;9.13;3.58;;;18.00;56.90;;;;;;5048693;28;20029;-50
2023/05/19 08:46:29;;;;;;;8.32;3.75;;;18.00;58.50;;;;;;5031739;28;20070;-50
2023/05/19 08:49:08;;;;;;;7.47;3.55;;;18.30;59.40;;;;;;5035888;28;20029;-46
2023/05/19 08:52:14;;;;;;;7.97;4.13;;;18.60;59.30;;;;;;5048002;28;20029;-49
2023/05/19 08:55:03;;;;;;;10.77;5.20;;;18.80;58.40;;;;;;5030458;28;20041;-47
2023/05/19 08:57:31;;;;;;;7.80;4.20;;;18.40;57.30;;;;;;5043049;28;20043;-45
2023/05/19 08:59:59;;;;;;;7.43;4.57;;;18.10;57.80;;;;;;5031684;28;20048;-46
2023/05/19 09:02:38;;;;;;;9.85;4.03;;;18.30;58.40;;;;;;5043908;28;20049;-52
2023/05/19 09:05:05;;;;;;;;;;;18.40;59.70;;;;;;5040970;28;20021;-46
2023/05/19 09:07:37;;;;;;;8.85;4.45;;;18.40;61.70;;;;;;5045953;28;19924;-46
2023/05/19 09:10:07;;;;;;;9.68;4.18;;;18.40;56.90;;;;;;5045087;28;20107;-49
2023/05/19 09:12:35;;;;;;;;;;;18.20;57.60;;;;;;5042895;28;20024;-48
2023/05/19 09:15:03;;;;;;;8.48;4.10;;;18.30;60.30;;;;;;5024952;28;19912;-46
2023/05/19 09:17:32;;;;;;;12.48;4.65;;;18.50;61.30;;;;;;5042772;28;20151;-46
2023/05/19 09:20:11;;;;;;;8.85;4.45;;;18.30;60.30;;;;;;5041951;28;20039;-46
2023/05/19 09:22:46;;;;;;;10.35;5.38;;;18.50;61.50;;;;;;5029813;28;20029;-46
2023/05/19 09:25:21;;;;;;;13.50;4.95;;;18.30;60.40;;;;;;5033762;28;20352;-46
2023/05/19 09:27:50;;;;;;;7.20;4.15;;;18.40;59.30;;;;;;5025761;28;20044;-46
2023/05/19 09:30:19;;;;;;;12.40;4.90;;;18.50;61.60;;;;;;5050433;28;20025;-47
2023/05/19 09:32:51;;;;;;;13.65;6.18;;;18.30;60.40;;;;;;5042318;28;20033;-47
2023/05/19 09:35:19;;;;;;;9.65;4.13;;;18.20;59.60;;;;;;5048510;28;20474;-48
2023/05/19 09:37:47;;;;;;;11.48;5.40;;;18.30;61.80;;;;;;5044459;28;20052;-47
2023/05/19 09:40:15;;;;;;;11.75;5.07;;;18.40;61.00;;;;;;5049905;28;20056;-45
2023/05/19 09:42:43;;;;;;;10.02;4.18;;;18.30;59.70;;;;;;5042486;28;20366;-48
2023/05/19 09:45:11;;;;;;;11.95;4.10;;;18.20;60.90;;;;;;5039866;28;20044;-46
2023/05/19 09:47:40;;;;;;;11.57;4.53;;;18.30;62.50;;;;;;5029713;28;20030;-46
2023/05/19 09:50:10;;;;;;;7.22;4.05;;;18.10;61.30;;;;;;5048637;28;20033;-46
2023/05/19 09:52:39;;;;;;;11.77;4.40;;;18.00;61.00;;;;;;5045994;28;20037;-46
2023/05/19 09:55:14;;;;;;;11.70;5.30;;;18.20;64.20;;;;;;5036876;28;20069;-47
2023/05/19 09:57:40;;;;;;;10.57;4.70;;;17.90;61.60;;;;;;5026184;28;20482;-48
2023/05/19 10:00:20;;;;;;;10.00;4.85;;;18.30;60.60;;;;;;5032369;28;20057;-48
2023/05/19 10:02:49;;;;;;;10.02;4.78;;;18.10;62.10;;;;;;5027358;28;20033;-46
2023/05/19 10:05:21;;;;;;;11.90;5.55;;;18.20;63.10;;;;;;5027710;28;20434;-49
2023/05/19 10:07:53;;;;;;;14.05;5.47;;;18.20;63.80;;;;;;5053865;28;20025;-46
2023/05/19 10:10:21;;;;;;;10.57;4.68;;;18.00;61.10;;;;;;5028797;28;20108;-46
2023/05/19 10:12:48;;;;;;;9.52;4.32;;;18.20;62.90;;;;;;5045202;28;20117;-48
2023/05/19 10:15:17;;;;;;;13.40;5.88;;;18.10;61.40;;;;;;5045965;28;20040;-46
2023/05/19 10:17:49;;;;;;;11.82;4.38;;;18.10;61.20;;;;;;5034402;28;20041;-47
2023/05/19 10:20:16;;;;;;;13.80;5.50;;;18.50;61.50;;;;;;5045498;28;20048;-49
2023/05/19 10:22:45;;;;;;;10.30;5.00;;;18.80;63.10;;;;;;5026422;28;20048;-47
2023/05/19 10:25:18;;;;;;;12.82;6.03;;;18.50;61.50;;;;;;5029631;28;20115;-46
2023/05/19 10:28:00;;;;;;;9.63;4.82;;;18.40;63.30;;;;;;5052491;28;20025;-47
2023/05/19 10:30:32;;;;;;;9.95;4.82;;;18.40;61.60;;;;;;5042808;28;20094;-49
2023/05/19 10:33:01;;;;;;;9.18;4.50;;;18.40;61.10;;;;;;5033004;28;20021;-46
2023/05/19 10:35:49;;;;;;;11.43;4.70;;;18.40;59.90;;;;;;5032214;28;20040;-46
2023/05/19 10:38:52;;;;;;;12.23;6.43;;;18.40;60.80;;;;;;5047439;28;20367;-48
2023/05/19 10:41:24;;;;;;;8.95;3.72;;;18.40;58.50;;;;;;5045894;28;20131;-49
2023/05/19 10:43:59;;;;;;;12.98;3.58;;;18.40;60.00;;;;;;5046560;28;20025;-47
2023/05/19 10:46:28;;;;;;;10.05;4.70;;;18.40;57.40;;;;;;5049543;28;20040;-46
2023/05/19 10:48:55;;;;;;;9.98;4.68;;;18.40;57.40;;;;;;5029870;28;20505;-46
2023/05/19 10:51:30;;;;;;;10.32;4.30;;;18.40;59.50;;;;;;5025434;28;20040;-48
2023/05/19 10:54:01;;;;;;;14.32;5.35;;;18.40;59.50;;;;;;5029295;28;20032;-47
2023/05/19 10:56:47;;;;;;;15.65;4.50;;;18.30;60.20;;;;;;5017464;28;20106;-47
2023/05/19 10:59:33;;;;;;;8.40;4.13;;;18.30;56.00;;;;;;5040408;28;20408;-48
2023/05/19 11:02:04;;;;;;;9.25;4.53;;;18.30;60.60;;;;;;5029881;28;20025;-50
2023/05/19 11:04:52;;;;;;;12.23;4.30;;;18.30;60.90;;;;;;5021010;28;20046;-49
2023/05/19 11:07:21;;;;;;;10.18;5.40;;;18.50;61.20;;;;;;5040409;28;20060;-47
2023/05/19 11:13:32;;;;;;;8.27;3.92;;;18.70;60.20;;;;;;4984156;28;20044;-46
2023/05/19 11:16:08;;;;;;;13.80;4.35;;;18.40;62.60;;;;;;5018666;28;20084;-47
2023/05/19 11:18:37;;;;;;;11.90;4.95;;;18.40;60.60;;;;;;5041159;28;20025;-46
2023/05/19 11:21:05;;;;;;;9.98;4.18;;;18.30;61.70;;;;;;5049976;28;20056;-46
2023/05/19 11:23:36;;;;;;;9.77;4.43;;;18.30;62.90;;;;;;5034521;28;20033;-46
2023/05/19 11:26:05;;;;;;;14.88;5.38;;;18.50;64.70;;;;;;5034118;28;20044;-50
2023/05/19 11:28:32;;;;;;;10.70;4.25;;;18.70;62.40;;;;;;5046812;28;20104;-46
2023/05/19 11:31:06;;;;;;;11.00;4.10;;;18.50;61.20;;;;;;5027067;28;20040;-46
2023/05/19 11:33:34;;;;;;;12.52;4.55;;;18.40;60.20;;;;;;5045884;28;20037;-47
2023/05/19 11:36:07;;;;;;;9.52;4.13;;;18.40;60.70;;;;;;5049267;28;20351;-47
2023/05/19 11:38:34;;;;;;;9.40;3.92;;;18.60;61.70;;;;;;5050933;28;20429;-46
2023/05/19 11:41:03;;;;;;;10.60;3.92;;;18.60;61.30;;;;;;5046665;28;20029;-46
2023/05/19 11:43:31;;;;;;;10.30;3.30;;;18.40;59.80;;;;;;5044628;28;20127;-46
2023/05/19 11:45:58;;;;;;;8.02;2.90;;;18.60;59.30;;;;;;5027440;28;20105;-47
2023/05/19 11:48:25;;;;;;;6.13;2.88;;;18.70;58.30;;;;;;5046731;28;20033;-46
2023/05/19 11:50:52;;;;;;;7.90;3.67;;;18.50;59.10;;;;;;5028814;28;20044;-49
2023/05/19 11:53:24;;;;;;;12.25;3.80;;;18.60;58.10;;;;;;5042500;28;20108;-46
2023/05/19 11:55:49;;;;;;;9.18;3.70;;;18.50;59.80;;;;;;5047086;28;20651;-49
2023/05/19 11:58:15;;;;;;;11.70;3.95;;;18.40;62.30;;;;;;5027565;28;20044;-46
2023/05/19 12:00:46;;;;;;;12.70;4.25;;;18.40;60.10;;;;;;5012057;28;20120;-51
2023/05/19 12:03:13;;;;;;;9.27;3.92;;;18.40;61.50;;;;;;5046239;28;20351;-46
2023/05/19 12:05:47;;;;;;;12.20;4.60;;;18.40;60.70;;;;;;5027961;28;20064;-46
2023/05/19 12:08:20;;;;;;;7.10;3.45;;;18.30;60.60;;;;;;5029377;28;20061;-45
2023/05/19 12:10:51;;;;;;;12.20;4.47;;;18.30;61.90;;;;;;5043567;28;20083;-50
2023/05/19 12:13:21;;;;;;;9.88;4.03;;;18.30;60.80;;;;;;5029848;28;20098;-46
2023/05/19 12:15:49;;;;;;;;;;;18.30;60.30;;;;;;5049919;28;20029;-46
2023/05/19 12:18:14;;;;;;;9.65;3.75;;;18.20;61.20;;;;;;5029038;28;19928;-47
2023/05/19 12:20:43;;;;;;;9.27;4.63;;;18.20;61.40;;;;;;5045687;28;20359;-48
2023/05/19 12:23:13;;;;;;;8.53;3.97;;;18.30;60.00;;;;;;5047263;28;20033;-48
2023/05/19 12:25:40;;;;;;;12.55;4.18;;;18.30;62.40;;;;;;5042716;28;20041;-46
2023/05/19 12:28:08;;;;;;;8.77;3.35;;;18.30;63.40;;;;;;5040469;28;20044;-50
2023/05/19 12:30:35;;;;;;;12.23;3.97;;;18.20;62.30;;;;;;5046245;28;20473;-50
2023/05/19 12:33:03;;;;;;;10.23;4.28;;;18.20;63.30;;;;;;5047746;28;20519;-46
2023/05/19 12:35:32;;;;;;;9.57;3.92;;;18.10;61.40;;;;;;5049757;28;20029;-46
2023/05/19 12:38:03;;;;;;;11.83;4.07;;;18.10;63.50;;;;;;5050101;28;20093;-47
2023/05/19 12:40:32;;;;;;;11.45;4.20;;;17.90;63.20;;;;;;5034488;28;20044;-48
2023/05/19 12:42:58;;;;;;;9.80;5.25;;;17.80;63.80;;;;;;5030599;28;20565;-48
2023/05/19 12:45:27;;;;;;;11.00;4.40;;;17.80;63.70;;;;;;5043012;28;20120;-46
2023/05/19 12:47:53;;;;;;;;;;;17.80;65.40;;;;;;5041856;28;20446;-49
2023/05/19 12:50:20;;;;;;;8.88;3.60;;;17.80;65.80;;;;;;5047781;28;19943;-47
2023/05/19 12:52:49;;;;;;;10.05;3.60;;;17.70;66.00;;;;;;5039817;28;20033;-48
2023/05/19 12:55:19;;;;;;;8.75;3.55;;;17.60;65.60;;;;;;5050603;28;20033;-46
2023/05/19 12:57:51;;;;;;;10.65;3.80;;;17.40;63.50;;;;;;5044946;28;20049;-46
2023/05/19 13:00:21;;;;;;;13.25;4.20;;;17.60;66.70;;;;;;5011387;28;20029;-48
2023/05/19 13:02:55;;;;;;;15.70;4.10;;;17.80;64.10;;;;;;5031969;28;20029;-46
2023/05/19 13:05:22;;;;;;;13.60;3.50;;;17.60;65.00;;;;;;5034705;28;20108;-45